Bei Facebook empfehlenBei Twitter postenGoogle plusPinterest

Das Wetter im Erzgebirge am 18.11.2015

Wetter und Klima am 18.11.2015 Holzhau im Erzgebirge (630m ü.NN)
Letzte gemessene Temperatur und Uhrzeit der Messung23:45:00 Uhr5.90 °C
Temperatur (Maximum / Höchstwert) und Uhrzeit der Messung03:00:00 Uhr12.10 °C
Temperatur (Minimum / Tiefstwert) und Uhrzeit der Messung21:15:005.30 °C
Errechneter Absolutwert der Temperaturschwankungen zwischen Tmin und Tmax des Tages6.80 K
Errechnete Tagesmitteltemperatur9.43333 °C
Gesamt - Niederschlag des Tages (in flüssiger Form)1.03 Liter / m²
Luftdruck (Maximum / Höchstwert) und Zeitpunkt der Messung18:00:00 Uhr1013.20 hPa
Luftdruck (Minimum / Tiefstwert) und Zeitpunkt der Messung03:15:00 Uhr1001.30 hPa
Errechneter Absolutwert der Luftdruckschwankungen des Tages11.90 hPa
Höchste gemessene Windgeschwindigkeit und Uhrzeit der Messung04:00:00 Uhr29.52 km/h
Errechnete Windhäufigkeit in Relation zu den Messwerten des Tages78.12500 %
Niedrigste Windkühle (Windchill) und Zeitpunkt der Messung21:15:00 Uhr3.70 °C
Taupunkt (Maximum / Höchstwert) und Uhrzeit der Messung02:30:00 Uhr10.50 °C
Taupunkt (Minimum / Tiefstwert) und Uhrzeit der Messung21:00:002.30 °C
Anzahl der automatisch eingelesenen Messwerte 96

Detaillierte Wetter- und Klima- Messwerte für den 18.11.2015 in Holzhau im Erzgebirge (630m ü.NN)
ZeitTemperaturLuftdruckRel. LuftfeuchteWindWindrichtungWindchillTaupunktNiederschlag l/m²
23:45:005.90 °C1010.70 hPa83.00 %3.20 °C1.03
23:30:006.10 °C1010.70 hPa82.00 %3.30 °C1.03
23:15:006.40 °C1010.60 hPa82.00 %2.16 km/hSW6.40 °C3.60 °C1.03
23:00:006.80 °C1010.70 hPa82.00 %3.90 °C1.03
22:45:006.70 °C1011.10 hPa82.00 %3.90 °C1.03
22:30:006.80 °C1011.10 hPa82.00 %3.90 °C1.03
22:15:007.20 °C1011.40 hPa82.00 %6.84 km/hSW6.00 °C4.30 °C1.03
22:00:006.90 °C1011.70 hPa83.00 %5.40 km/hSSW6.10 °C4.20 °C1.03
21:45:006.30 °C1012.10 hPa83.00 %3.60 °C1.03
21:30:006.00 °C1012.00 hPa83.00 %3.30 °C1.03
21:15:005.30 °C1011.90 hPa83.00 %7.20 km/hWNW3.70 °C2.70 °C1.03
21:00:005.30 °C1012.10 hPa81.00 %2.16 km/hSW5.30 °C2.30 °C1.03
20:45:006.10 °C1011.90 hPa81.00 %1.80 km/hSW6.10 °C3.10 °C1.03
20:30:006.40 °C1011.80 hPa81.00 %8.28 km/hSSW4.70 °C3.40 °C1.03
20:15:006.60 °C1012.10 hPa80.00 %3.40 °C1.03
20:00:007.10 °C1012.30 hPa79.00 %3.70 °C1.03
19:45:007.40 °C1012.40 hPa79.00 %5.04 km/hSW6.80 °C4.00 °C1.03
19:30:007.70 °C1012.50 hPa78.00 %4.32 km/hWSW7.70 °C4.10 °C1.03
19:15:007.80 °C1012.50 hPa78.00 %3.96 km/hW7.80 °C4.20 °C1.03
19:00:008.00 °C1012.50 hPa78.00 %2.16 km/hWNW8.00 °C4.40 °C1.03
18:45:008.40 °C1012.90 hPa78.00 %3.24 km/hW8.40 °C4.80 °C1.03
18:30:008.70 °C1013.00 hPa78.00 %2.88 km/hWSW8.70 °C5.10 °C1.03
18:15:009.00 °C1013.10 hPa79.00 %5.60 °C1.03
18:00:009.10 °C1013.20 hPa79.00 %3.60 km/hNW9.10 °C5.70 °C1.03
17:45:009.10 °C1013.10 hPa79.00 %11.88 km/hSW7.20 °C5.70 °C1.03
17:30:009.10 °C1013.20 hPa80.00 %5.80 °C1.03
17:15:009.00 °C1013.10 hPa80.00 %5.70 °C1.03
17:00:009.10 °C1013.10 hPa79.00 %5.70 °C1.03
16:45:009.00 °C1013.10 hPa78.00 %5.40 °C1.03
16:30:009.00 °C1012.70 hPa77.00 %6.48 km/hW8.20 °C5.20 °C1.03
16:15:009.10 °C1012.60 hPa77.00 %5.30 °C1.03
16:00:009.10 °C1012.50 hPa76.00 %5.76 km/hWNW8.50 °C5.10 °C1.03
15:45:009.20 °C1012.20 hPa76.00 %5.20 °C1.03
15:30:009.30 °C1012.10 hPa75.00 %3.96 km/hW9.30 °C5.10 °C1.03
15:15:009.40 °C1012.10 hPa74.00 %2.52 km/hWNW9.40 °C5.00 °C1.03
15:00:009.80 °C1011.70 hPa73.00 %6.48 km/hNW9.10 °C5.20 °C1.03
14:45:0010.20 °C1011.60 hPa72.00 %6.12 km/hW9.70 °C5.40 °C1.03
14:30:0010.20 °C1011.40 hPa71.00 %6.84 km/hNW9.50 °C5.20 °C1.03
14:15:0010.80 °C1011.40 hPa69.00 %9.00 km/hW9.80 °C5.30 °C1.03
14:00:0011.10 °C1011.30 hPa70.00 %7.20 km/hN10.50 °C5.80 °C1.03
13:45:0011.00 °C1011.00 hPa73.00 %8.28 km/hN10.10 °C6.40 °C1.03
13:30:0010.50 °C1010.60 hPa75.00 %6.48 km/hNW9.90 °C6.30 °C1.03
13:15:0010.20 °C1010.10 hPa77.00 %5.40 km/hNW9.90 °C6.40 °C1.03
13:00:009.90 °C1009.70 hPa78.00 %9.00 km/hWNW8.70 °C6.20 °C1.03
12:45:009.80 °C1009.60 hPa80.00 %7.20 km/hNW8.90 °C6.50 °C1.03
12:30:009.40 °C1009.60 hPa81.00 %23.04 km/hWNW6.30 °C6.30 °C1.03
12:15:009.30 °C1009.40 hPa83.00 %5.76 km/hNNW8.70 °C6.60 °C1.03
12:00:009.20 °C1008.90 hPa85.00 %15.48 km/hW6.90 °C6.80 °C1.03
11:45:008.90 °C1008.70 hPa86.00 %6.70 °C1.03
11:30:008.40 °C1008.70 hPa86.00 %6.20 °C1.03
11:15:008.60 °C1008.40 hPa85.00 %10.08 km/hWSW6.90 °C6.20 °C1.03
11:00:008.40 °C1008.00 hPa86.00 %10.80 km/hNW6.60 °C6.20 °C1.03
10:45:008.40 °C1007.90 hPa85.00 %6.00 °C1.03
10:30:009.10 °C1007.30 hPa83.00 %8.64 km/hWNW7.80 °C6.40 °C1.03
10:15:008.80 °C1007.10 hPa84.00 %8.64 km/hWSW7.50 °C6.20 °C1.03
10:00:008.60 °C1006.80 hPa85.00 %6.12 km/hNNW7.80 °C6.20 °C1.03
09:45:008.10 °C1006.30 hPa85.00 %6.48 km/hW7.20 °C5.70 °C1.03
09:30:008.50 °C1006.20 hPa83.00 %3.96 km/hNW8.50 °C5.80 °C1.03
09:15:009.40 °C1006.10 hPa80.00 %19.80 km/hWNW6.60 °C6.10 °C1.03
09:00:009.90 °C1005.70 hPa77.00 %9.36 km/hWNW8.60 °C6.10 °C1.03
08:45:009.90 °C1005.30 hPa77.00 %13.32 km/hNW8.00 °C6.10 °C1.03
08:30:009.60 °C1005.00 hPa78.00 %10.80 km/hNNW8.00 °C6.00 °C1.03
08:15:0010.10 °C1004.70 hPa76.00 %12.96 km/hWNW8.30 °C6.10 °C1.03
08:00:0010.40 °C1004.10 hPa73.00 %8.28 km/hNW9.40 °C5.80 °C1.03
07:45:0010.80 °C1003.70 hPa72.00 %22.32 km/hWNW8.20 °C6.00 °C1.03
07:30:0010.90 °C1003.40 hPa72.00 %9.72 km/hNW9.80 °C6.10 °C1.03
07:15:0010.80 °C1003.40 hPa75.00 %17.64 km/hW8.60 °C6.60 °C1.03
07:00:0010.80 °C1003.00 hPa78.00 %12.96 km/hNW9.20 °C7.10 °C1.03
06:45:0010.80 °C1002.90 hPa82.00 %23.04 km/hW8.10 °C7.90 °C1.03
06:30:0010.50 °C1002.70 hPa86.00 %7.92 km/hNW9.60 °C8.30 °C1.03
06:15:0010.30 °C1002.50 hPa87.00 %9.72 km/hWSW9.00 °C8.20 °C1.03
06:00:0010.50 °C1002.20 hPa85.00 %3.96 km/hW10.50 °C8.10 °C1.03
05:45:0010.70 °C1001.90 hPa85.00 %17.28 km/hW8.50 °C8.30 °C1.03
05:30:0010.70 °C1001.70 hPa84.00 %9.72 km/hW9.50 °C8.10 °C1.03
05:15:0011.60 °C1001.70 hPa81.00 %13.32 km/hNNW10.10 °C8.50 °C0.51
05:00:0011.90 °C1001.50 hPa80.00 %7.92 km/hW11.30 °C8.60 °C0.51
04:45:0011.80 °C1001.80 hPa80.00 %18.36 km/hWNW9.80 °C8.50 °C0.51
04:30:0011.80 °C1001.80 hPa82.00 %18.00 km/hWNW9.80 °C8.80 °C0.51
04:15:0011.80 °C1001.70 hPa84.00 %12.60 km/hNNW10.40 °C9.20 °C0.51
04:00:0011.70 °C1002.30 hPa85.00 %29.52 km/hW8.80 °C9.30 °C0.51
03:45:0011.60 °C1002.00 hPa86.00 %8.64 km/hW10.80 °C9.30 °C0.51
03:30:0011.60 °C1001.70 hPa87.00 %9.00 km/hNW10.70 °C9.50 °C0.51
03:15:0011.90 °C1001.30 hPa87.00 %16.92 km/hSW10.10 °C9.80 °C0.51
03:00:0012.10 °C1001.70 hPa88.00 %16.92 km/hW10.30 °C10.20 °C0.51
02:45:0012.10 °C1001.90 hPa89.00 %9.36 km/hNW11.20 °C10.30 °C0.51
02:30:0012.10 °C1002.50 hPa90.00 %8.64 km/hN11.40 °C10.50 °C0.51
02:15:0011.90 °C1002.60 hPa90.00 %3.24 km/hWNW11.90 °C10.30 °C0.51
02:00:0011.60 °C1002.70 hPa91.00 %6.12 km/hWNW11.30 °C10.20 °C0.51
01:45:0011.50 °C1003.10 hPa91.00 %4.32 km/hWNW11.50 °C10.10 °C0.51
01:30:0011.10 °C1003.10 hPa91.00 %6.12 km/hWNW10.70 °C9.70 °C0.51
01:15:0011.10 °C1003.30 hPa92.00 %18.00 km/hWSW9.00 °C9.90 °C0.51
01:00:0010.90 °C1003.50 hPa91.00 %14.04 km/hSW9.10 °C9.50 °C0.51
00:45:0010.80 °C1003.90 hPa91.00 %9.40 °C0.51
00:30:0010.80 °C1004.10 hPa91.00 %9.40 °C 
00:15:0011.10 °C1004.30 hPa90.00 %13.32 km/hNNW9.50 °C9.50 °C 
00:00:0011.10 °C1004.30 hPa90.00 %3.24 km/hW11.10 °C9.50 °C 

Permanenter Link zu dieser Seite: Wetter im Erzgebirge am 18.11.2015
Performance-Info: Die Erstellung der Seite / Statistik(en) / Tabelle(n) erforderte 5 Datenbankserver-Abfrage(n) und dauerte 101 Millisekunden. (Dieser Messwert ist von der Gesamt-Auslastung des Servers abhängig.)
Erzgebirge - Wetter | Erzgebirge - Wetter (Mobilgeräte) | Komplette Klimadatenbank